sensor_id;sensor_type;location;lat;lon;timestamp;P1;durP1;ratioP1;P2;durP2;ratioP2
17424;SDS011;8830;50.978;5.058;2023-06-01T00:02:04;8.77;;;7.10;;
17424;SDS011;8830;50.978;5.058;2023-06-01T00:04:33;12.60;;;7.00;;
17424;SDS011;8830;50.978;5.058;2023-06-01T00:07:05;7.50;;;5.83;;
17424;SDS011;8830;50.978;5.058;2023-06-01T00:09:33;6.53;;;5.83;;
17424;SDS011;8830;50.978;5.058;2023-06-01T00:12:00;8.67;;;5.80;;
17424;SDS011;8830;50.978;5.058;2023-06-01T00:14:27;10.67;;;5.70;;
17424;SDS011;8830;50.978;5.058;2023-06-01T00:16:55;6.90;;;5.97;;
17424;SDS011;8830;50.978;5.058;2023-06-01T00:19:24;10.80;;;5.57;;
17424;SDS011;8830;50.978;5.058;2023-06-01T00:21:53;6.83;;;5.83;;
17424;SDS011;8830;50.978;5.058;2023-06-01T00:24:21;14.70;;;7.10;;
17424;SDS011;8830;50.978;5.058;2023-06-01T00:26:49;9.33;;;5.60;;
17424;SDS011;8830;50.978;5.058;2023-06-01T00:29:16;5.63;;;5.03;;
17424;SDS011;8830;50.978;5.058;2023-06-01T00:31:43;9.50;;;6.03;;
17424;SDS011;8830;50.978;5.058;2023-06-01T00:34:10;9.63;;;5.40;;
17424;SDS011;8830;50.978;5.058;2023-06-01T00:36:37;5.20;;;4.77;;
17424;SDS011;8830;50.978;5.058;2023-06-01T00:39:06;6.77;;;4.80;;
17424;SDS011;8830;50.978;5.058;2023-06-01T00:41:33;7.53;;;5.00;;
17424;SDS011;8830;50.978;5.058;2023-06-01T00:44:01;11.00;;;5.57;;
17424;SDS011;8830;50.978;5.058;2023-06-01T00:46:28;10.00;;;5.20;;
17424;SDS011;8830;50.978;5.058;2023-06-01T00:48:57;9.87;;;5.73;;
17424;SDS011;8830;50.978;5.058;2023-06-01T00:51:24;9.50;;;6.60;;
17424;SDS011;8830;50.978;5.058;2023-06-01T00:53:52;7.70;;;5.33;;
17424;SDS011;8830;50.978;5.058;2023-06-01T00:56:21;6.90;;;5.53;;
17424;SDS011;8830;50.978;5.058;2023-06-01T00:58:48;8.33;;;5.57;;
17424;SDS011;8830;50.978;5.058;2023-06-01T01:01:16;7.70;;;5.87;;
17424;SDS011;8830;50.978;5.058;2023-06-01T01:03:46;7.13;;;5.60;;
17424;SDS011;8830;50.978;5.058;2023-06-01T01:06:16;12.90;;;5.73;;
17424;SDS011;8830;50.978;5.058;2023-06-01T01:08:54;9.27;;;5.63;;
17424;SDS011;8830;50.978;5.058;2023-06-01T01:11:35;7.70;;;5.70;;
17424;SDS011;8830;50.978;5.058;2023-06-01T01:14:04;6.93;;;5.83;;
17424;SDS011;8830;50.978;5.058;2023-06-01T01:16:39;8.03;;;5.70;;
17424;SDS011;8830;50.978;5.058;2023-06-01T01:19:18;12.47;;;6.23;;
17424;SDS011;8830;50.978;5.058;2023-06-01T01:22:13;7.77;;;6.23;;
17424;SDS011;8830;50.978;5.058;2023-06-01T01:24:57;11.97;;;5.80;;
17424;SDS011;8830;50.978;5.058;2023-06-01T01:27:55;7.10;;;6.07;;
17424;SDS011;8830;50.978;5.058;2023-06-01T01:30:35;13.23;;;6.53;;
17424;SDS011;8830;50.978;5.058;2023-06-01T01:33:05;6.57;;;5.97;;
17424;SDS011;8830;50.978;5.058;2023-06-01T01:35:33;9.70;;;6.27;;
17424;SDS011;8830;50.978;5.058;2023-06-01T01:38:01;7.70;;;6.30;;
17424;SDS011;8830;50.978;5.058;2023-06-01T01:40:28;10.30;;;7.10;;
17424;SDS011;8830;50.978;5.058;2023-06-01T01:42:55;9.10;;;6.73;;
17424;SDS011;8830;50.978;5.058;2023-06-01T01:45:22;8.33;;;7.30;;
17424;SDS011;8830;50.978;5.058;2023-06-01T01:47:54;8.33;;;7.53;;
17424;SDS011;8830;50.978;5.058;2023-06-01T01:50:26;11.90;;;7.30;;
17424;SDS011;8830;50.978;5.058;2023-06-01T01:52:58;8.97;;;8.07;;
17424;SDS011;8830;50.978;5.058;2023-06-01T01:55:28;9.13;;;8.10;;
17424;SDS011;8830;50.978;5.058;2023-06-01T01:57:57;9.37;;;8.50;;
17424;SDS011;8830;50.978;5.058;2023-06-01T02:00:25;11.20;;;8.70;;
17424;SDS011;8830;50.978;5.058;2023-06-01T02:02:55;11.23;;;8.83;;
17424;SDS011;8830;50.978;5.058;2023-06-01T02:05:23;9.73;;;8.03;;
17424;SDS011;8830;50.978;5.058;2023-06-01T02:07:50;9.17;;;8.27;;
17424;SDS011;8830;50.978;5.058;2023-06-01T02:10:17;10.13;;;8.60;;
17424;SDS011;8830;50.978;5.058;2023-06-01T02:12:44;9.20;;;8.43;;
17424;SDS011;8830;50.978;5.058;2023-06-01T02:15:11;12.43;;;8.60;;
17424;SDS011;8830;50.978;5.058;2023-06-01T02:17:39;9.50;;;8.57;;
17424;SDS011;8830;50.978;5.058;2023-06-01T02:20:10;9.70;;;8.47;;
17424;SDS011;8830;50.978;5.058;2023-06-01T02:22:37;13.63;;;8.37;;
17424;SDS011;8830;50.978;5.058;2023-06-01T02:25:04;13.57;;;9.03;;
17424;SDS011;8830;50.978;5.058;2023-06-01T02:27:32;9.90;;;9.00;;
17424;SDS011;8830;50.978;5.058;2023-06-01T02:29:59;11.00;;;9.90;;
17424;SDS011;8830;50.978;5.058;2023-06-01T02:32:26;12.27;;;9.87;;
17424;SDS011;8830;50.978;5.058;2023-06-01T02:34:55;10.97;;;9.30;;
17424;SDS011;8830;50.978;5.058;2023-06-01T02:37:24;10.33;;;9.33;;
17424;SDS011;8830;50.978;5.058;2023-06-01T02:39:51;14.40;;;9.63;;
17424;SDS011;8830;50.978;5.058;2023-06-01T02:42:18;11.73;;;9.77;;
17424;SDS011;8830;50.978;5.058;2023-06-01T02:44:46;15.00;;;10.70;;
17424;SDS011;8830;50.978;5.058;2023-06-01T02:47:13;13.70;;;9.87;;
17424;SDS011;8830;50.978;5.058;2023-06-01T02:49:40;10.97;;;10.13;;
17424;SDS011;8830;50.978;5.058;2023-06-01T02:52:07;13.67;;;11.53;;
17424;SDS011;8830;50.978;5.058;2023-06-01T02:54:38;14.13;;;11.30;;
17424;SDS011;8830;50.978;5.058;2023-06-01T02:57:06;16.70;;;11.63;;
17424;SDS011;8830;50.978;5.058;2023-06-01T02:59:34;12.23;;;10.97;;
17424;SDS011;8830;50.978;5.058;2023-06-01T03:02:01;13.00;;;11.60;;
17424;SDS011;8830;50.978;5.058;2023-06-01T03:04:28;13.47;;;12.17;;
17424;SDS011;8830;50.978;5.058;2023-06-01T03:06:57;13.80;;;11.37;;
17424;SDS011;8830;50.978;5.058;2023-06-01T03:09:26;14.13;;;11.90;;
17424;SDS011;8830;50.978;5.058;2023-06-01T03:11:55;13.67;;;12.37;;
17424;SDS011;8830;50.978;5.058;2023-06-01T03:14:22;15.83;;;12.80;;
17424;SDS011;8830;50.978;5.058;2023-06-01T03:16:49;16.60;;;12.37;;
17424;SDS011;8830;50.978;5.058;2023-06-01T03:19:16;14.57;;;12.87;;
17424;SDS011;8830;50.978;5.058;2023-06-01T03:21:44;14.87;;;12.50;;
17424;SDS011;8830;50.978;5.058;2023-06-01T03:24:12;16.47;;;13.47;;
17424;SDS011;8830;50.978;5.058;2023-06-01T03:26:39;17.27;;;14.03;;
17424;SDS011;8830;50.978;5.058;2023-06-01T03:29:07;18.37;;;13.63;;
17424;SDS011;8830;50.978;5.058;2023-06-01T03:31:35;16.30;;;14.07;;
17424;SDS011;8830;50.978;5.058;2023-06-01T03:34:02;17.70;;;15.40;;
17424;SDS011;8830;50.978;5.058;2023-06-01T03:36:30;21.03;;;14.67;;
17424;SDS011;8830;50.978;5.058;2023-06-01T03:38:58;22.63;;;15.00;;
17424;SDS011;8830;50.978;5.058;2023-06-01T03:41:25;22.80;;;14.90;;
17424;SDS011;8830;50.978;5.058;2023-06-01T03:43:53;19.10;;;15.07;;
17424;SDS011;8830;50.978;5.058;2023-06-01T03:46:22;20.60;;;15.30;;
17424;SDS011;8830;50.978;5.058;2023-06-01T03:48:49;20.47;;;15.13;;
17424;SDS011;8830;50.978;5.058;2023-06-01T03:51:16;21.23;;;16.20;;
17424;SDS011;8830;50.978;5.058;2023-06-01T03:53:44;20.37;;;15.93;;
17424;SDS011;8830;50.978;5.058;2023-06-01T03:56:11;19.67;;;15.50;;
17424;SDS011;8830;50.978;5.058;2023-06-01T03:58:39;17.53;;;15.60;;
17424;SDS011;8830;50.978;5.058;2023-06-01T04:01:06;22.07;;;16.47;;
17424;SDS011;8830;50.978;5.058;2023-06-01T04:03:36;17.57;;;15.27;;
17424;SDS011;8830;50.978;5.058;2023-06-01T04:06:04;19.17;;;16.00;;
17424;SDS011;8830;50.978;5.058;2023-06-01T04:08:39;19.23;;;15.73;;
17424;SDS011;8830;50.978;5.058;2023-06-01T04:11:13;17.70;;;16.00;;
17424;SDS011;8830;50.978;5.058;2023-06-01T04:13:42;24.87;;;18.03;;
17424;SDS011;8830;50.978;5.058;2023-06-01T04:16:11;21.57;;;16.30;;
17424;SDS011;8830;50.978;5.058;2023-06-01T04:18:40;21.73;;;16.47;;
17424;SDS011;8830;50.978;5.058;2023-06-01T04:21:08;19.97;;;16.60;;
17424;SDS011;8830;50.978;5.058;2023-06-01T04:23:35;17.20;;;14.90;;
17424;SDS011;8830;50.978;5.058;2023-06-01T04:26:03;20.13;;;15.87;;
17424;SDS011;8830;50.978;5.058;2023-06-01T04:28:31;22.00;;;15.57;;
17424;SDS011;8830;50.978;5.058;2023-06-01T04:30:59;17.13;;;15.40;;
17424;SDS011;8830;50.978;5.058;2023-06-01T04:33:29;18.77;;;14.93;;
17424;SDS011;8830;50.978;5.058;2023-06-01T04:35:58;19.50;;;15.93;;
17424;SDS011;8830;50.978;5.058;2023-06-01T04:38:26;17.20;;;15.40;;
17424;SDS011;8830;50.978;5.058;2023-06-01T04:40:54;16.73;;;15.13;;
17424;SDS011;8830;50.978;5.058;2023-06-01T04:43:21;18.40;;;15.20;;
17424;SDS011;8830;50.978;5.058;2023-06-01T04:45:48;21.70;;;14.63;;
17424;SDS011;8830;50.978;5.058;2023-06-01T04:48:16;15.23;;;13.80;;
17424;SDS011;8830;50.978;5.058;2023-06-01T04:50:45;14.53;;;12.97;;
17424;SDS011;8830;50.978;5.058;2023-06-01T04:53:14;16.43;;;13.03;;
17424;SDS011;8830;50.978;5.058;2023-06-01T04:55:43;14.30;;;12.93;;
17424;SDS011;8830;50.978;5.058;2023-06-01T04:58:10;14.87;;;13.17;;
17424;SDS011;8830;50.978;5.058;2023-06-01T05:00:37;14.90;;;13.30;;
17424;SDS011;8830;50.978;5.058;2023-06-01T05:03:08;15.67;;;14.17;;
17424;SDS011;8830;50.978;5.058;2023-06-01T05:05:36;19.13;;;17.23;;
17424;SDS011;8830;50.978;5.058;2023-06-01T05:08:03;23.07;;;18.73;;
17424;SDS011;8830;50.978;5.058;2023-06-01T05:10:31;25.90;;;20.90;;
17424;SDS011;8830;50.978;5.058;2023-06-01T05:12:59;29.37;;;25.77;;
17424;SDS011;8830;50.978;5.058;2023-06-01T05:15:27;35.83;;;27.50;;
17424;SDS011;8830;50.978;5.058;2023-06-01T05:17:55;33.07;;;27.30;;
17424;SDS011;8830;50.978;5.058;2023-06-01T05:20:23;37.80;;;28.80;;
17424;SDS011;8830;50.978;5.058;2023-06-01T05:22:50;32.13;;;27.97;;
17424;SDS011;8830;50.978;5.058;2023-06-01T05:25:17;32.17;;;28.70;;
17424;SDS011;8830;50.978;5.058;2023-06-01T05:27:46;33.13;;;29.43;;
17424;SDS011;8830;50.978;5.058;2023-06-01T05:30:13;34.83;;;30.47;;
17424;SDS011;8830;50.978;5.058;2023-06-01T05:32:40;32.67;;;29.00;;
17424;SDS011;8830;50.978;5.058;2023-06-01T05:35:08;34.17;;;27.77;;
17424;SDS011;8830;50.978;5.058;2023-06-01T05:37:36;31.70;;;27.40;;
17424;SDS011;8830;50.978;5.058;2023-06-01T05:40:03;32.83;;;25.63;;
17424;SDS011;8830;50.978;5.058;2023-06-01T05:42:32;29.70;;;24.53;;
17424;SDS011;8830;50.978;5.058;2023-06-01T05:45:02;30.03;;;26.50;;
17424;SDS011;8830;50.978;5.058;2023-06-01T05:47:36;36.50;;;28.57;;
17424;SDS011;8830;50.978;5.058;2023-06-01T05:50:05;28.97;;;26.00;;
17424;SDS011;8830;50.978;5.058;2023-06-01T05:52:34;33.03;;;26.70;;
17424;SDS011;8830;50.978;5.058;2023-06-01T05:55:01;39.87;;;30.07;;
17424;SDS011;8830;50.978;5.058;2023-06-01T05:57:29;37.97;;;29.77;;
17424;SDS011;8830;50.978;5.058;2023-06-01T05:59:56;41.57;;;30.13;;
17424;SDS011;8830;50.978;5.058;2023-06-01T06:02:26;36.00;;;28.83;;
17424;SDS011;8830;50.978;5.058;2023-06-01T06:04:54;36.07;;;28.83;;
17424;SDS011;8830;50.978;5.058;2023-06-01T06:07:21;33.67;;;28.47;;
17424;SDS011;8830;50.978;5.058;2023-06-01T06:09:48;36.57;;;30.37;;
17424;SDS011;8830;50.978;5.058;2023-06-01T06:12:15;33.50;;;29.97;;
17424;SDS011;8830;50.978;5.058;2023-06-01T06:14:43;37.70;;;31.73;;
17424;SDS011;8830;50.978;5.058;2023-06-01T06:17:12;40.90;;;35.37;;
17424;SDS011;8830;50.978;5.058;2023-06-01T06:19:41;51.27;;;38.77;;
17424;SDS011;8830;50.978;5.058;2023-06-01T06:22:09;41.37;;;33.83;;
17424;SDS011;8830;50.978;5.058;2023-06-01T06:24:37;36.47;;;28.03;;
17424;SDS011;8830;50.978;5.058;2023-06-01T06:27:04;38.53;;;32.53;;
17424;SDS011;8830;50.978;5.058;2023-06-01T06:29:32;39.63;;;33.97;;
17424;SDS011;8830;50.978;5.058;2023-06-01T06:31:59;36.33;;;31.67;;
17424;SDS011;8830;50.978;5.058;2023-06-01T06:34:27;34.67;;;30.20;;
17424;SDS011;8830;50.978;5.058;2023-06-01T06:37:01;38.40;;;29.57;;
17424;SDS011;8830;50.978;5.058;2023-06-01T06:39:29;33.23;;;27.30;;
17424;SDS011;8830;50.978;5.058;2023-06-01T06:41:56;25.23;;;22.77;;
17424;SDS011;8830;50.978;5.058;2023-06-01T06:44:23;29.77;;;23.43;;
17424;SDS011;8830;50.978;5.058;2023-06-01T06:46:51;28.80;;;24.33;;
17424;SDS011;8830;50.978;5.058;2023-06-01T06:49:19;114.43;;;29.67;;
17424;SDS011;8830;50.978;5.058;2023-06-01T06:51:47;25.83;;;22.93;;
17424;SDS011;8830;50.978;5.058;2023-06-01T06:54:15;30.73;;;23.90;;
17424;SDS011;8830;50.978;5.058;2023-06-01T06:56:43;28.93;;;25.37;;
17424;SDS011;8830;50.978;5.058;2023-06-01T06:59:10;36.13;;;29.20;;
17424;SDS011;8830;50.978;5.058;2023-06-01T07:01:39;33.63;;;26.80;;
17424;SDS011;8830;50.978;5.058;2023-06-01T07:04:06;33.00;;;28.03;;
17424;SDS011;8830;50.978;5.058;2023-06-01T07:06:33;30.70;;;27.40;;
17424;SDS011;8830;50.978;5.058;2023-06-01T07:09:03;32.10;;;28.57;;
17424;SDS011;8830;50.978;5.058;2023-06-01T07:11:32;29.87;;;26.73;;
17424;SDS011;8830;50.978;5.058;2023-06-01T07:14:00;33.73;;;26.93;;
17424;SDS011;8830;50.978;5.058;2023-06-01T07:16:27;26.80;;;24.03;;
17424;SDS011;8830;50.978;5.058;2023-06-01T07:18:55;31.20;;;24.03;;
17424;SDS011;8830;50.978;5.058;2023-06-01T07:21:22;26.73;;;23.73;;
17424;SDS011;8830;50.978;5.058;2023-06-01T07:23:50;26.23;;;23.63;;
17424;SDS011;8830;50.978;5.058;2023-06-01T07:26:17;26.40;;;23.50;;
17424;SDS011;8830;50.978;5.058;2023-06-01T07:28:46;26.10;;;23.53;;
17424;SDS011;8830;50.978;5.058;2023-06-01T07:31:18;29.23;;;24.87;;
17424;SDS011;8830;50.978;5.058;2023-06-01T07:33:47;29.23;;;25.53;;
17424;SDS011;8830;50.978;5.058;2023-06-01T07:36:17;25.40;;;22.77;;
17424;SDS011;8830;50.978;5.058;2023-06-01T07:38:44;23.97;;;21.67;;
17424;SDS011;8830;50.978;5.058;2023-06-01T07:41:13;24.30;;;20.83;;
17424;SDS011;8830;50.978;5.058;2023-06-01T07:43:40;23.37;;;21.00;;
17424;SDS011;8830;50.978;5.058;2023-06-01T07:46:09;20.90;;;19.08;;
17424;SDS011;8830;50.978;5.058;2023-06-01T07:48:37;20.52;;;18.27;;
17424;SDS011;8830;50.978;5.058;2023-06-01T07:51:04;20.88;;;18.95;;
17424;SDS011;8830;50.978;5.058;2023-06-01T07:53:32;19.42;;;17.83;;
17424;SDS011;8830;50.978;5.058;2023-06-01T07:56:00;20.20;;;18.23;;
17424;SDS011;8830;50.978;5.058;2023-06-01T07:58:27;17.27;;;15.95;;
17424;SDS011;8830;50.978;5.058;2023-06-01T08:00:54;16.95;;;15.85;;
17424;SDS011;8830;50.978;5.058;2023-06-01T08:03:23;18.80;;;17.25;;
17424;SDS011;8830;50.978;5.058;2023-06-01T08:05:51;18.33;;;16.83;;
17424;SDS011;8830;50.978;5.058;2023-06-01T08:08:23;18.63;;;16.83;;
17424;SDS011;8830;50.978;5.058;2023-06-01T08:10:50;20.98;;;16.45;;
17424;SDS011;8830;50.978;5.058;2023-06-01T08:13:18;18.52;;;16.77;;
17424;SDS011;8830;50.978;5.058;2023-06-01T08:15:46;18.88;;;17.23;;
17424;SDS011;8830;50.978;5.058;2023-06-01T08:18:13;16.67;;;15.10;;
17424;SDS011;8830;50.978;5.058;2023-06-01T08:20:42;15.50;;;14.13;;
17424;SDS011;8830;50.978;5.058;2023-06-01T08:23:09;14.60;;;13.32;;
17424;SDS011;8830;50.978;5.058;2023-06-01T08:25:37;14.98;;;12.60;;
17424;SDS011;8830;50.978;5.058;2023-06-01T08:28:04;14.35;;;13.25;;
17424;SDS011;8830;50.978;5.058;2023-06-01T08:30:31;12.88;;;11.98;;
17424;SDS011;8830;50.978;5.058;2023-06-01T08:32:58;11.93;;;10.88;;
17424;SDS011;8830;50.978;5.058;2023-06-01T08:35:27;12.95;;;11.60;;
17424;SDS011;8830;50.978;5.058;2023-06-01T08:37:59;11.75;;;10.95;;
17424;SDS011;8830;50.978;5.058;2023-06-01T08:40:26;13.40;;;10.77;;
17424;SDS011;8830;50.978;5.058;2023-06-01T08:42:57;12.77;;;11.68;;
17424;SDS011;8830;50.978;5.058;2023-06-01T08:45:25;11.93;;;11.02;;
17424;SDS011;8830;50.978;5.058;2023-06-01T08:47:54;12.57;;;11.43;;
17424;SDS011;8830;50.978;5.058;2023-06-01T08:50:23;12.15;;;11.05;;
17424;SDS011;8830;50.978;5.058;2023-06-01T08:52:53;11.75;;;10.70;;
17424;SDS011;8830;50.978;5.058;2023-06-01T08:55:22;12.32;;;11.15;;
17424;SDS011;8830;50.978;5.058;2023-06-01T08:57:49;14.52;;;11.05;;
17424;SDS011;8830;50.978;5.058;2023-06-01T09:00:17;12.10;;;10.95;;
17424;SDS011;8830;50.978;5.058;2023-06-01T09:02:45;11.88;;;10.50;;
17424;SDS011;8830;50.978;5.058;2023-06-01T09:05:13;10.93;;;10.02;;
17424;SDS011;8830;50.978;5.058;2023-06-01T09:07:41;11.35;;;9.85;;
17424;SDS011;8830;50.978;5.058;2023-06-01T09:10:08;12.23;;;11.05;;
17424;SDS011;8830;50.978;5.058;2023-06-01T09:12:38;12.45;;;10.88;;
17424;SDS011;8830;50.978;5.058;2023-06-01T09:15:09;11.65;;;10.65;;
17424;SDS011;8830;50.978;5.058;2023-06-01T09:17:37;12.23;;;11.10;;
17424;SDS011;8830;50.978;5.058;2023-06-01T09:20:05;15.40;;;11.23;;
17424;SDS011;8830;50.978;5.058;2023-06-01T09:22:41;11.80;;;10.55;;
17424;SDS011;8830;50.978;5.058;2023-06-01T09:25:09;11.00;;;9.70;;
17424;SDS011;8830;50.978;5.058;2023-06-01T09:27:44;10.27;;;9.25;;
17424;SDS011;8830;50.978;5.058;2023-06-01T09:30:12;10.85;;;9.73;;
17424;SDS011;8830;50.978;5.058;2023-06-01T09:32:40;11.98;;;9.82;;
17424;SDS011;8830;50.978;5.058;2023-06-01T09:35:08;11.05;;;10.10;;
17424;SDS011;8830;50.978;5.058;2023-06-01T09:37:36;11.25;;;10.30;;
17424;SDS011;8830;50.978;5.058;2023-06-01T09:40:15;12.70;;;10.38;;
17424;SDS011;8830;50.978;5.058;2023-06-01T09:42:45;13.23;;;10.60;;
17424;SDS011;8830;50.978;5.058;2023-06-01T09:45:18;13.50;;;11.20;;
17424;SDS011;8830;50.978;5.058;2023-06-01T09:47:47;13.30;;;10.65;;
17424;SDS011;8830;50.978;5.058;2023-06-01T09:50:33;13.23;;;11.95;;
17424;SDS011;8830;50.978;5.058;2023-06-01T09:53:01;14.23;;;12.02;;
17424;SDS011;8830;50.978;5.058;2023-06-01T09:55:30;12.83;;;11.83;;
17424;SDS011;8830;50.978;5.058;2023-06-01T10:00:48;13.17;;;11.73;;
17424;SDS011;8830;50.978;5.058;2023-06-01T10:03:16;13.52;;;11.48;;
17424;SDS011;8830;50.978;5.058;2023-06-01T10:05:45;19.35;;;11.68;;
17424;SDS011;8830;50.978;5.058;2023-06-01T10:08:13;13.50;;;11.23;;
17424;SDS011;8830;50.978;5.058;2023-06-01T10:10:42;13.13;;;11.82;;
17424;SDS011;8830;50.978;5.058;2023-06-01T10:13:10;14.43;;;12.02;;
17424;SDS011;8830;50.978;5.058;2023-06-01T10:15:39;14.13;;;12.50;;
17424;SDS011;8830;50.978;5.058;2023-06-01T10:18:07;16.98;;;11.80;;
17424;SDS011;8830;50.978;5.058;2023-06-01T10:20:34;15.63;;;12.20;;
17424;SDS011;8830;50.978;5.058;2023-06-01T10:23:02;14.53;;;13.13;;
17424;SDS011;8830;50.978;5.058;2023-06-01T10:25:30;15.52;;;12.57;;
17424;SDS011;8830;50.978;5.058;2023-06-01T10:28:02;12.38;;;11.38;;
17424;SDS011;8830;50.978;5.058;2023-06-01T10:30:32;13.37;;;12.27;;
17424;SDS011;8830;50.978;5.058;2023-06-01T10:33:01;13.68;;;12.35;;
17424;SDS011;8830;50.978;5.058;2023-06-01T10:38:25;16.58;;;12.45;;
17424;SDS011;8830;50.978;5.058;2023-06-01T10:40:52;13.10;;;11.70;;
17424;SDS011;8830;50.978;5.058;2023-06-01T10:49:18;13.60;;;12.17;;
17424;SDS011;8830;50.978;5.058;2023-06-01T10:51:46;12.82;;;11.55;;
17424;SDS011;8830;50.978;5.058;2023-06-01T10:54:28;15.65;;;12.30;;
17424;SDS011;8830;50.978;5.058;2023-06-01T11:02:50;14.23;;;12.68;;
17424;SDS011;8830;50.978;5.058;2023-06-01T11:11:18;14.48;;;12.43;;
17424;SDS011;8830;50.978;5.058;2023-06-01T11:14:08;14.50;;;12.85;;
17424;SDS011;8830;50.978;5.058;2023-06-01T11:16:37;12.13;;;11.13;;
17424;SDS011;8830;50.978;5.058;2023-06-01T11:19:05;13.95;;;12.63;;
17424;SDS011;8830;50.978;5.058;2023-06-01T11:21:36;13.60;;;12.27;;
17424;SDS011;8830;50.978;5.058;2023-06-01T11:24:07;14.98;;;11.48;;
17424;SDS011;8830;50.978;5.058;2023-06-01T11:26:36;12.35;;;11.15;;
17424;SDS011;8830;50.978;5.058;2023-06-01T11:29:11;15.05;;;13.63;;
17424;SDS011;8830;50.978;5.058;2023-06-01T11:31:43;14.52;;;13.00;;
17424;SDS011;8830;50.978;5.058;2023-06-01T11:34:12;15.43;;;13.48;;
17424;SDS011;8830;50.978;5.058;2023-06-01T11:36:42;14.52;;;13.00;;
17424;SDS011;8830;50.978;5.058;2023-06-01T11:42:04;16.08;;;12.45;;
17424;SDS011;8830;50.978;5.058;2023-06-01T11:44:33;17.08;;;13.60;;
17424;SDS011;8830;50.978;5.058;2023-06-01T11:47:01;13.57;;;12.38;;
17424;SDS011;8830;50.978;5.058;2023-06-01T11:49:30;13.57;;;11.57;;
17424;SDS011;8830;50.978;5.058;2023-06-01T11:52:00;15.35;;;13.77;;
17424;SDS011;8830;50.978;5.058;2023-06-01T11:54:27;18.75;;;11.73;;
17424;SDS011;8830;50.978;5.058;2023-06-01T11:56:56;19.80;;;12.63;;
17424;SDS011;8830;50.978;5.058;2023-06-01T11:59:23;12.75;;;11.10;;
17424;SDS011;8830;50.978;5.058;2023-06-01T12:01:50;14.80;;;11.60;;
17424;SDS011;8830;50.978;5.058;2023-06-01T12:04:19;13.80;;;11.35;;
17424;SDS011;8830;50.978;5.058;2023-06-01T12:06:47;15.25;;;11.27;;
17424;SDS011;8830;50.978;5.058;2023-06-01T12:09:16;17.53;;;12.77;;
17424;SDS011;8830;50.978;5.058;2023-06-01T12:11:46;12.57;;;11.30;;
17424;SDS011;8830;50.978;5.058;2023-06-01T12:14:13;13.25;;;11.02;;
17424;SDS011;8830;50.978;5.058;2023-06-01T12:16:51;12.48;;;11.27;;
17424;SDS011;8830;50.978;5.058;2023-06-01T12:19:18;14.48;;;10.82;;
17424;SDS011;8830;50.978;5.058;2023-06-01T12:21:47;11.70;;;10.20;;
17424;SDS011;8830;50.978;5.058;2023-06-01T12:24:17;12.02;;;10.35;;
17424;SDS011;8830;50.978;5.058;2023-06-01T12:26:46;13.50;;;11.00;;
17424;SDS011;8830;50.978;5.058;2023-06-01T12:29:13;11.93;;;10.73;;
17424;SDS011;8830;50.978;5.058;2023-06-01T12:31:51;12.27;;;10.48;;
17424;SDS011;8830;50.978;5.058;2023-06-01T12:34:20;15.32;;;11.50;;
17424;SDS011;8830;50.978;5.058;2023-06-01T12:36:49;12.95;;;11.63;;
17424;SDS011;8830;50.978;5.058;2023-06-01T12:39:24;14.43;;;12.73;;
17424;SDS011;8830;50.978;5.058;2023-06-01T12:42:02;13.48;;;11.20;;
17424;SDS011;8830;50.978;5.058;2023-06-01T12:44:30;15.07;;;13.05;;
17424;SDS011;8830;50.978;5.058;2023-06-01T12:46:59;18.00;;;13.18;;
17424;SDS011;8830;50.978;5.058;2023-06-01T12:49:27;13.25;;;11.32;;
17424;SDS011;8830;50.978;5.058;2023-06-01T12:51:54;13.45;;;11.55;;
17424;SDS011;8830;50.978;5.058;2023-06-01T12:54:23;11.55;;;10.38;;
17424;SDS011;8830;50.978;5.058;2023-06-01T12:56:51;14.10;;;11.27;;
17424;SDS011;8830;50.978;5.058;2023-06-01T12:59:18;12.85;;;11.50;;
17424;SDS011;8830;50.978;5.058;2023-06-01T13:01:46;16.90;;;10.77;;
17424;SDS011;8830;50.978;5.058;2023-06-01T13:04:13;18.48;;;10.40;;
17424;SDS011;8830;50.978;5.058;2023-06-01T13:06:41;13.30;;;11.65;;
17424;SDS011;8830;50.978;5.058;2023-06-01T13:09:12;17.27;;;10.85;;
17424;SDS011;8830;50.978;5.058;2023-06-01T13:11:42;10.95;;;9.82;;
17424;SDS011;8830;50.978;5.058;2023-06-01T13:14:09;12.15;;;9.05;;
17424;SDS011;8830;50.978;5.058;2023-06-01T13:16:36;9.52;;;8.70;;
17424;SDS011;8830;50.978;5.058;2023-06-01T13:19:03;13.23;;;11.15;;
17424;SDS011;8830;50.978;5.058;2023-06-01T13:21:32;11.63;;;9.15;;
17424;SDS011;8830;50.978;5.058;2023-06-01T13:23:59;10.07;;;9.10;;
17424;SDS011;8830;50.978;5.058;2023-06-01T13:26:28;18.27;;;9.85;;
17424;SDS011;8830;50.978;5.058;2023-06-01T13:28:56;10.85;;;8.10;;
17424;SDS011;8830;50.978;5.058;2023-06-01T13:31:27;12.80;;;9.57;;
17424;SDS011;8830;50.978;5.058;2023-06-01T13:33:54;9.85;;;8.73;;
17424;SDS011;8830;50.978;5.058;2023-06-01T13:36:22;12.30;;;9.48;;
17424;SDS011;8830;50.978;5.058;2023-06-01T13:38:48;15.45;;;9.18;;
17424;SDS011;8830;50.978;5.058;2023-06-01T13:41:16;12.32;;;10.00;;
17424;SDS011;8830;50.978;5.058;2023-06-01T13:43:43;9.85;;;8.85;;
17424;SDS011;8830;50.978;5.058;2023-06-01T13:46:12;12.70;;;8.85;;
17424;SDS011;8830;50.978;5.058;2023-06-01T13:48:38;14.65;;;10.15;;
17424;SDS011;8830;50.978;5.058;2023-06-01T13:51:06;10.52;;;9.25;;
17424;SDS011;8830;50.978;5.058;2023-06-01T13:53:33;15.15;;;9.60;;
17424;SDS011;8830;50.978;5.058;2023-06-01T13:56:01;10.25;;;8.95;;
17424;SDS011;8830;50.978;5.058;2023-06-01T13:58:28;11.82;;;9.05;;
17424;SDS011;8830;50.978;5.058;2023-06-01T14:00:56;10.15;;;9.02;;
17424;SDS011;8830;50.978;5.058;2023-06-01T14:03:24;10.38;;;9.02;;
17424;SDS011;8830;50.978;5.058;2023-06-01T14:05:52;12.77;;;8.07;;
17424;SDS011;8830;50.978;5.058;2023-06-01T14:08:19;9.25;;;8.40;;
17424;SDS011;8830;50.978;5.058;2023-06-01T14:10:47;10.73;;;9.52;;
17424;SDS011;8830;50.978;5.058;2023-06-01T14:13:14;10.13;;;8.63;;
17424;SDS011;8830;50.978;5.058;2023-06-01T14:15:41;12.80;;;8.75;;
17424;SDS011;8830;50.978;5.058;2023-06-01T14:18:08;9.70;;;8.73;;
17424;SDS011;8830;50.978;5.058;2023-06-01T14:20:37;10.70;;;9.68;;
17424;SDS011;8830;50.978;5.058;2023-06-01T14:23:05;10.18;;;8.02;;
17424;SDS011;8830;50.978;5.058;2023-06-01T14:25:34;10.77;;;8.32;;
17424;SDS011;8830;50.978;5.058;2023-06-01T14:28:01;10.70;;;8.18;;
17424;SDS011;8830;50.978;5.058;2023-06-01T14:30:28;16.30;;;9.50;;
17424;SDS011;8830;50.978;5.058;2023-06-01T14:32:56;13.23;;;10.02;;
17424;SDS011;8830;50.978;5.058;2023-06-01T14:35:23;12.45;;;8.65;;
17424;SDS011;8830;50.978;5.058;2023-06-01T14:37:53;9.38;;;8.45;;
17424;SDS011;8830;50.978;5.058;2023-06-01T14:40:21;12.10;;;9.48;;
17424;SDS011;8830;50.978;5.058;2023-06-01T14:42:48;9.93;;;8.95;;
17424;SDS011;8830;50.978;5.058;2023-06-01T14:45:15;12.90;;;7.72;;
17424;SDS011;8830;50.978;5.058;2023-06-01T14:47:45;11.75;;;7.70;;
17424;SDS011;8830;50.978;5.058;2023-06-01T14:50:12;11.00;;;6.93;;
17424;SDS011;8830;50.978;5.058;2023-06-01T14:52:40;11.63;;;6.97;;
17424;SDS011;8830;50.978;5.058;2023-06-01T14:55:08;10.25;;;6.28;;
17424;SDS011;8830;50.978;5.058;2023-06-01T14:57:35;7.82;;;5.78;;
17424;SDS011;8830;50.978;5.058;2023-06-01T15:00:03;8.63;;;6.22;;
17424;SDS011;8830;50.978;5.058;2023-06-01T15:02:32;11.25;;;6.65;;
17424;SDS011;8830;50.978;5.058;2023-06-01T15:04:59;8.57;;;5.57;;
17424;SDS011;8830;50.978;5.058;2023-06-01T15:07:27;9.13;;;5.80;;
17424;SDS011;8830;50.978;5.058;2023-06-01T15:09:54;6.97;;;5.60;;
17424;SDS011;8830;50.978;5.058;2023-06-01T15:12:24;7.70;;;5.75;;
17424;SDS011;8830;50.978;5.058;2023-06-01T15:14:51;8.48;;;5.68;;
17424;SDS011;8830;50.978;5.058;2023-06-01T15:17:18;6.50;;;5.40;;